Time;durP1;ratioP1;P1;durP2;ratioP2;P2;SDS_P1;SDS_P2;PMS_P1;PMS_P2;Temp;Humidity;BMP_temperature;BMP_pressure;BME280_temperature;BME280_humidity;BME280_pressure;Samples;Min_cycle;Max_cycle;Signal;HPM_P1;HPM_P2
2023/05/21 00:01:31;;;;;;;55.40;39.42;;;;;;;17.74;54.12;93417.78;4993833;28;20107;-93
2023/05/21 00:03:58;;;;;;;50.13;35.58;;;;;;;17.75;54.45;93413.78;4994234;28;20041;-93
2023/05/21 00:06:23;;;;;;;55.58;38.05;;;;;;;17.73;53.79;93414.28;4994855;28;20040;-92
2023/05/21 00:08:49;;;;;;;57.95;37.78;;;;;;;17.71;54.17;93416.78;4994936;28;20029;-92
2023/05/21 00:11:14;;;;;;;52.80;36.92;;;;;;;17.76;53.97;93407.78;5010351;28;20041;-93
2023/05/21 00:13:40;;;;;;;56.42;37.83;;;;;;;17.72;54.15;93403.88;4993863;28;20037;-93
2023/05/21 00:16:06;;;;;;;61.42;40.63;;;;;;;17.70;54.10;93403.63;4994481;28;20099;-94
2023/05/21 00:18:33;;;;;;;61.45;41.47;;;;;;;17.69;54.18;93405.63;4994405;28;20491;-92
2023/05/21 00:20:58;;;;;;;57.65;39.63;;;;;;;17.71;54.07;93389.44;4995110;28;20033;-92
2023/05/21 00:23:25;;;;;;;52.15;37.47;;;;;;;17.72;54.27;93392.94;4993259;28;20448;-93
2023/05/21 00:25:51;;;;;;;56.38;38.08;;;;;;;17.70;53.98;93387.22;4994575;28;20084;-93
2023/05/21 00:28:17;;;;;;;53.88;36.85;;;;;;;17.71;53.91;93391.44;4994107;28;20085;-92
2023/05/21 00:30:42;;;;;;;57.38;38.13;;;;;;;17.71;53.89;93396.91;4997431;28;20491;-93
2023/05/21 00:33:09;;;;;;;53.45;36.53;;;;;;;17.71;54.17;93380.50;4996773;28;20049;-92
2023/05/21 00:35:34;;;;;;;54.92;38.03;;;;;;;17.70;54.05;93387.22;4998041;28;20116;-92
2023/05/21 00:38:03;;;;;;;62.10;39.17;;;;;;;17.70;54.13;93395.41;5003244;28;20487;-92
2023/05/21 00:40:29;;;;;;;57.35;37.42;;;;;;;17.70;54.03;93381.75;5000904;28;20041;-92
2023/05/21 00:42:56;;;;;;;60.08;38.53;;;;;;;17.69;53.95;93389.22;4997677;28;20038;-92
2023/05/21 00:45:22;;;;;;;54.53;37.45;;;;;;;17.70;53.95;93377.03;4997501;28;20046;-94
2023/05/21 00:47:48;;;;;;;60.38;38.85;;;;;;;17.70;54.13;93379.75;4998406;28;20033;-92
2023/05/21 00:50:13;;;;;;;59.22;38.55;;;;;;;17.71;53.61;93383.97;4996585;28;20048;-92
2023/05/21 00:52:42;;;;;;;60.08;39.22;;;;;;;17.71;54.07;93377.78;4997675;28;20057;-92
2023/05/21 00:55:08;;;;;;;53.22;35.83;;;;;;;17.71;53.92;93373.03;5013551;28;20717;-93
2023/05/21 00:57:36;;;;;;;57.92;39.13;;;;;;;17.69;54.02;93366.59;5009544;28;20056;-93
2023/05/21 01:00:02;;;;;;;60.63;38.80;;;;;;;17.70;53.84;93368.81;4997446;28;20053;-92
2023/05/21 01:02:31;;;;;;;57.95;38.10;;;;;;;17.70;54.14;93374.28;4996829;28;20239;-92
2023/05/21 01:04:59;;;;;;;55.58;38.50;;;;;;;17.71;54.08;93377.78;5013369;28;20042;-93
2023/05/21 01:07:24;;;;;;;54.85;37.75;;;;;;;17.69;54.05;93372.81;4997842;28;20033;-92
2023/05/21 01:09:50;;;;;;;55.78;36.47;;;;;;;17.71;54.10;93372.31;4997562;28;20045;-92
2023/05/21 01:12:15;;;;;;;58.00;36.83;;;;;;;17.69;53.84;93374.78;4996749;28;20038;-93
2023/05/21 01:14:41;;;;;;;58.45;38.10;;;;;;;17.70;53.75;93374.28;4993891;28;20038;-93
2023/05/21 01:17:09;;;;;;;55.88;39.10;;;;;;;17.69;54.06;93363.88;4981519;28;20056;-92
2023/05/21 01:19:34;;;;;;;59.75;36.65;;;;;;;17.69;54.19;93361.88;4964608;28;20105;-93
2023/05/21 01:22:05;;;;;;;51.53;35.85;;;;;;;17.68;54.13;93357.66;4977903;28;20045;-93
2023/05/21 01:24:31;;;;;;;63.75;38.00;;;;;;;17.68;53.88;93357.66;4975680;28;20042;-93
2023/05/21 01:26:58;;;;;;;55.67;37.80;;;;;;;17.70;53.80;93355.16;4960335;28;20042;-92
2023/05/21 01:29:23;;;;;;;56.83;37.10;;;;;;;17.70;54.29;93355.16;4974093;28;20053;-92
2023/05/21 01:31:57;;;;;;;56.28;36.80;;;;;;;17.69;54.05;93355.66;4995695;28;20080;-93
2023/05/21 01:34:27;;;;;;;56.92;37.85;;;;;;;17.69;53.91;93359.13;4982696;28;20054;-94
2023/05/21 01:36:57;;;;;;;57.45;35.88;;;;;;;17.70;54.35;93363.34;4975488;28;20046;-92
2023/05/21 01:39:28;;;;;;;57.00;37.53;;;;;;;17.68;54.12;93357.66;4956551;28;20050;-92
2023/05/21 01:41:54;;;;;;;55.28;36.70;;;;;;;17.69;53.92;93358.41;4939913;28;20078;-92
2023/05/21 01:44:19;;;;;;;58.40;38.35;;;;;;;17.68;53.92;93371.31;4958224;28;20049;-92
2023/05/21 01:46:45;;;;;;;56.00;38.35;;;;;;;17.68;54.05;93365.84;4959352;28;20056;-92
2023/05/21 01:49:10;;;;;;;60.55;38.30;;;;;;;17.66;53.94;93357.41;4992138;28;20492;-91
2023/05/21 01:51:36;;;;;;;55.53;38.15;;;;;;;17.67;53.85;93363.63;4995962;28;20038;-91
2023/05/21 01:54:01;;;;;;;59.25;37.63;;;;;;;17.67;54.07;93361.63;4996127;28;20056;-93
2023/05/21 01:56:27;;;;;;;54.22;37.88;;;;;;;17.67;53.92;93352.69;5011995;28;20893;-91
2023/05/21 01:58:55;;;;;;;50.92;35.28;;;;;;;17.66;53.74;93348.47;4996477;28;20042;-93
2023/05/21 02:01:21;;;;;;;51.85;35.33;;;;;;;17.66;54.27;93340.28;4982587;28;20038;-93
2023/05/21 02:03:46;;;;;;;60.17;38.13;;;;;;;17.67;54.17;93345.22;4996486;28;20037;-92
2023/05/21 02:06:11;;;;;;;54.58;35.83;;;;;;;17.65;54.15;93345.00;4996426;28;20551;-92
2023/05/21 02:08:37;;;;;;;57.20;38.28;;;;;;;17.65;54.31;93353.19;4997128;28;20507;-93
2023/05/21 02:11:02;;;;;;;54.22;36.45;;;;;;;17.65;54.45;93347.00;5028544;28;20381;-91
2023/05/21 02:13:28;;;;;;;54.22;37.70;;;;;;;17.65;54.01;93352.44;5007340;28;20037;-93
2023/05/21 02:15:56;;;;;;;55.10;37.10;;;;;;;17.63;53.92;93352.19;4995149;28;20041;-92
2023/05/21 02:18:22;;;;;;;57.83;37.67;;;;;;;17.64;54.15;93354.44;4995576;28;20133;-93
2023/05/21 02:20:47;;;;;;;51.15;33.90;;;;;;;17.65;53.81;93352.44;4992570;28;20042;-92
2023/05/21 02:23:12;;;;;;;55.50;37.08;;;;;;;17.65;54.04;93341.53;5024467;28;20400;-93
2023/05/21 02:25:38;;;;;;;51.45;36.42;;;;;;;17.62;54.28;93347.97;4985552;28;20034;-92
2023/05/21 02:28:03;;;;;;;58.83;36.45;;;;;;;17.64;54.16;93350.94;4982728;28;20534;-93
2023/05/21 02:30:29;;;;;;;61.28;37.63;;;;;;;17.64;54.34;93354.44;4995714;28;20060;-93
2023/05/21 02:32:57;;;;;;;51.58;37.47;;;;;;;17.64;53.79;93343.50;4996301;28;20048;-93
2023/05/21 02:35:22;;;;;;;55.38;36.90;;;;;;;17.66;54.20;93343.75;4995382;28;20045;-93
2023/05/21 02:37:48;;;;;;;55.25;38.08;;;;;;;17.65;54.07;93341.53;5011543;28;20041;-92
2023/05/21 02:40:14;;;;;;;53.03;37.28;;;;;;;17.66;54.24;93343.00;4995327;28;20038;-92
2023/05/21 02:42:40;;;;;;;60.58;37.00;;;;;;;17.63;53.87;93338.53;4995553;28;20046;-93
2023/05/21 02:45:09;;;;;;;50.28;36.53;;;;;;;17.63;53.83;93344.00;4994819;28;20034;-92
2023/05/21 02:47:34;;;;;;;57.70;36.30;;;;;;;17.64;54.14;93343.50;4995779;28;20038;-93
2023/05/21 02:50:00;;;;;;;55.53;35.50;;;;;;;17.63;54.23;93342.00;4994930;28;20458;-93
2023/05/21 02:52:26;;;;;;;55.40;36.30;;;;;;;17.65;54.34;93336.78;4995091;28;20426;-92
2023/05/21 02:54:51;;;;;;;58.88;36.92;;;;;;;17.63;54.22;93344.00;4995470;28;20050;-92
2023/05/21 02:57:17;;;;;;;54.63;37.25;;;;;;;17.64;53.60;93334.53;4995002;28;20483;-92
2023/05/21 02:59:43;;;;;;;51.90;34.58;;;;;;;17.63;53.86;93339.25;4995744;28;20395;-93
2023/05/21 03:02:09;;;;;;;50.08;33.60;;;;;;;17.65;54.21;93338.78;5016294;28;20037;-93
2023/05/21 03:04:37;;;;;;;54.38;36.88;;;;;;;17.64;53.75;93340.78;4994829;28;20083;-93
2023/05/21 03:07:04;;;;;;;56.13;38.15;;;;;;;17.64;54.02;93331.81;4992781;28;20042;-92
2023/05/21 03:09:30;;;;;;;52.10;36.72;;;;;;;17.65;53.87;93341.53;5024550;28;20072;-92
2023/05/21 03:11:55;;;;;;;55.67;37.60;;;;;;;17.64;54.00;93331.81;4995287;28;20060;-92
2023/05/21 03:14:23;;;;;;;55.05;37.05;;;;;;;17.65;53.91;93338.78;5000542;28;20034;-93
2023/05/21 03:16:50;;;;;;;55.10;35.85;;;;;;;17.63;54.10;93338.53;4995607;28;20049;-93
2023/05/21 03:19:15;;;;;;;54.05;36.60;;;;;;;17.62;53.74;93337.78;4995005;28;20061;-92
2023/05/21 03:21:41;;;;;;;58.13;37.20;;;;;;;17.64;54.25;93337.28;4995544;28;20073;-92
2023/05/21 03:24:08;;;;;;;58.40;36.97;;;;;;;17.63;53.95;93336.53;4995268;28;20068;-92
2023/05/21 03:26:34;;;;;;;53.78;35.42;;;;;;;17.63;54.06;93344.72;4994904;28;20048;-92
2023/05/21 03:29:00;;;;;;;55.92;36.20;;;;;;;17.63;53.85;93342.00;4991713;28;20520;-92
2023/05/21 03:31:25;;;;;;;52.08;34.55;;;;;;;17.64;54.18;93340.78;5005780;28;20105;-93
2023/05/21 03:33:51;;;;;;;55.80;36.10;;;;;;;17.63;54.08;93338.53;4995480;28;20136;-91
2023/05/21 03:36:17;;;;;;;52.50;36.58;;;;;;;17.62;54.07;93348.72;4994451;28;20045;-92
2023/05/21 03:38:42;;;;;;;54.33;36.83;;;;;;;17.63;53.88;93341.25;4996676;28;20129;-93
2023/05/21 03:41:08;;;;;;;51.40;36.25;;;;;;;17.61;53.57;93343.75;4994109;28;20037;-93
2023/05/21 03:43:33;;;;;;;55.35;37.25;;;;;;;17.61;53.97;93341.00;4994628;28;20072;-93
2023/05/21 03:45:58;;;;;;;48.45;35.63;;;;;;;17.61;53.88;93341.75;4994391;28;20389;-92
2023/05/21 03:48:24;;;;;;;53.08;35.60;;;;;;;17.62;54.30;93337.03;4994727;28;20048;-92
2023/05/21 03:50:50;;;;;;;54.65;36.45;;;;;;;17.61;53.76;93344.50;4991319;28;20038;-93
2023/05/21 03:53:15;;;;;;;54.35;34.58;;;;;;;17.64;53.60;93346.25;5022848;28;20049;-92
2023/05/21 03:55:41;;;;;;;46.13;32.80;;;;;;;17.64;54.02;93348.22;4983061;28;20034;-92
2023/05/21 03:58:06;;;;;;;53.10;34.88;;;;;;;17.67;53.78;93344.50;4994981;28;20041;-93
2023/05/21 04:00:33;;;;;;;49.78;35.78;;;;;;;17.67;53.76;93347.97;4991960;28;20467;-92
2023/05/21 04:02:59;;;;;;;49.08;35.45;;;;;;;17.68;53.96;93346.72;4963653;28;20046;-93
2023/05/21 04:05:25;;;;;;;56.85;35.13;;;;;;;17.69;54.16;93348.22;4975582;28;20046;-92
2023/05/21 04:07:51;;;;;;;54.35;36.50;;;;;;;17.68;53.92;93335.78;4977363;28;20029;-93
2023/05/21 04:10:16;;;;;;;50.03;35.38;;;;;;;17.70;53.47;93348.94;4977017;28;20103;-92
2023/05/21 04:12:42;;;;;;;51.00;34.72;;;;;;;17.70;53.49;93344.22;4977767;28;20129;-92
2023/05/21 04:15:07;;;;;;;51.22;35.72;;;;;;;17.73;53.79;93354.16;4962126;28;20532;-92
2023/05/21 04:17:34;;;;;;;51.55;35.05;;;;;;;17.71;53.79;93353.91;4961045;28;20064;-92
2023/05/21 04:19:59;;;;;;;52.17;35.55;;;;;;;17.72;53.56;93352.66;4959169;28;20057;-92
2023/05/21 04:22:27;;;;;;;54.13;35.05;;;;;;;17.73;53.78;93351.41;4976343;28;20049;-93
2023/05/21 04:24:53;;;;;;;52.30;35.75;;;;;;;17.76;53.54;93355.09;4993397;28;20093;-93
2023/05/21 04:27:22;;;;;;;52.33;34.53;;;;;;;17.74;53.77;93346.69;4976215;28;20045;-93
2023/05/21 04:29:48;;;;;;;53.25;35.25;;;;;;;17.76;53.58;93358.56;4961596;28;20034;-92
2023/05/21 04:32:16;;;;;;;49.60;34.80;;;;;;;17.76;53.54;93364.03;5004894;28;20046;-92
2023/05/21 04:34:42;;;;;;;51.28;34.03;;;;;;;17.77;53.61;93351.84;4999113;28;20068;-92
2023/05/21 04:37:08;;;;;;;48.75;33.42;;;;;;;17.78;53.82;93345.13;4997138;28;20492;-93
2023/05/21 04:39:33;;;;;;;47.42;34.05;;;;;;;17.79;53.78;93356.81;4997706;28;20049;-92
2023/05/21 04:41:59;;;;;;;50.05;33.95;;;;;;;17.83;53.55;93349.09;5014270;28;20049;-93
2023/05/21 04:44:24;;;;;;;49.22;32.47;;;;;;;17.85;53.35;93356.78;4997522;28;20136;-92
2023/05/21 04:46:51;;;;;;;52.00;34.25;;;;;;;17.83;53.77;93348.34;4997730;28;20061;-92
2023/05/21 04:49:19;;;;;;;49.63;34.13;;;;;;;17.82;53.39;93350.34;4997697;28;20057;-92
2023/05/21 04:51:45;;;;;;;53.63;34.08;;;;;;;17.79;53.54;93357.56;4997921;28;20050;-93
2023/05/21 04:54:11;;;;;;;48.45;34.38;;;;;;;17.79;53.41;93354.09;4975768;28;20050;-94
2023/05/21 04:56:36;;;;;;;47.60;34.72;;;;;;;17.83;53.35;93356.56;4976909;28;20526;-93
2023/05/21 04:59:02;;;;;;;53.30;35.63;;;;;;;17.80;53.41;93359.06;4961219;28;20038;-92
2023/05/21 05:01:28;;;;;;;46.92;33.08;;;;;;;17.83;53.96;93362.75;4986588;28;20120;-93
2023/05/21 05:03:53;;;;;;;50.38;35.33;;;;;;;17.81;53.60;93359.78;4970435;28;20496;-93
2023/05/21 05:06:20;;;;;;;51.50;34.53;;;;;;;17.83;53.45;93356.56;4949993;28;20046;-93
2023/05/21 05:08:45;;;;;;;50.88;34.80;;;;;;;17.85;53.40;93362.25;4960432;28;20129;-93
2023/05/21 05:11:11;;;;;;;49.40;34.45;;;;;;;17.84;53.83;93361.50;4960074;28;20037;-92
2023/05/21 05:13:38;;;;;;;49.53;32.45;;;;;;;17.87;53.66;93362.50;4961867;28;20065;-92
2023/05/21 05:16:04;;;;;;;49.53;33.67;;;;;;;17.87;53.57;93360.50;4986313;28;20053;-92
2023/05/21 05:18:30;;;;;;;47.80;32.90;;;;;;;17.88;53.49;93355.78;4960329;28;20046;-92
2023/05/21 05:20:55;;;;;;;51.60;33.45;;;;;;;17.92;53.66;93350.78;4960123;28;20053;-93
2023/05/21 05:23:21;;;;;;;44.88;31.70;;;;;;;17.90;53.30;93347.81;4975384;28;20046;-93
2023/05/21 05:25:46;;;;;;;43.92;31.35;;;;;;;17.93;53.28;93349.53;4986480;28;20052;-92
2023/05/21 05:28:12;;;;;;;43.95;31.33;;;;;;;17.93;53.54;93342.06;4996368;28;20033;-91
2023/05/21 05:30:37;;;;;;;46.80;33.17;;;;;;;17.94;53.48;93340.06;5012941;28;20488;-93
2023/05/21 05:33:03;;;;;;;44.00;31.25;;;;;;;17.95;53.29;93350.50;4996935;28;20423;-92
2023/05/21 05:35:28;;;;;;;48.08;31.55;;;;;;;17.95;53.37;93341.56;4996352;28;20482;-92
2023/05/21 05:37:53;;;;;;;44.70;29.13;;;;;;;18.00;54.12;93346.97;5001319;28;20045;-92
2023/05/21 05:40:19;;;;;;;40.67;28.85;;;;;;;18.02;54.00;93341.00;4992340;28;20053;-92
2023/05/21 05:42:45;;;;;;;41.45;29.25;;;;;;;18.01;54.09;93340.25;5028637;28;20036;-92
2023/05/21 05:45:10;;;;;;;43.67;29.20;;;;;;;18.02;54.38;93336.25;4996490;28;20099;-93
2023/05/21 05:47:36;;;;;;;40.80;27.55;;;;;;;18.00;54.15;93344.22;4996533;28;20039;-93
2023/05/21 05:50:01;;;;;;;39.42;27.60;;;;;;;18.00;54.49;93333.28;4996042;28;20052;-92
2023/05/21 05:52:27;;;;;;;39.50;28.15;;;;;;;18.01;54.47;93337.50;4995977;28;20037;-93
2023/05/21 05:54:52;;;;;;;41.17;29.33;;;;;;;17.99;54.45;93326.34;4993017;28;20107;-93
2023/05/21 05:57:17;;;;;;;39.45;27.25;;;;;;;18.01;54.59;93329.31;5028316;28;20045;-92
2023/05/21 05:59:44;;;;;;;44.58;28.77;;;;;;;18.06;54.36;93336.72;4996146;28;20474;-93
2023/05/21 06:02:09;;;;;;;41.55;27.55;;;;;;;18.05;54.39;93334.50;4995554;28;20042;-93
2023/05/21 06:04:35;;;;;;;39.40;28.15;;;;;;;18.05;54.77;93323.56;4995368;28;20040;-92
2023/05/21 06:07:00;;;;;;;39.30;26.77;;;;;;;18.07;54.32;93335.47;4996243;28;20068;-93
2023/05/21 06:09:26;;;;;;;42.20;28.92;;;;;;;18.04;54.31;93333.00;4994795;28;20503;-92
2023/05/21 06:11:51;;;;;;;37.88;27.80;;;;;;;18.09;54.49;93330.25;4996530;28;20411;-93
2023/05/21 06:14:16;;;;;;;36.58;26.00;;;;;;;18.09;54.50;93324.03;5000047;28;20686;-92
2023/05/21 06:16:42;;;;;;;34.83;25.70;;;;;;;18.10;54.43;93331.72;4995695;28;20515;-92
2023/05/21 06:19:07;;;;;;;34.13;25.38;;;;;;;18.10;54.63;93323.53;4995342;28;20523;-93
2023/05/21 06:21:33;;;;;;;34.50;24.35;;;;;;;18.12;54.85;93329.22;4995790;28;20041;-92
2023/05/21 06:23:58;;;;;;;37.13;25.08;;;;;;;18.13;54.14;93321.75;4995904;28;20079;-92
2023/05/21 06:26:24;;;;;;;34.78;25.90;;;;;;;18.13;54.57;93325.22;4994306;28;20025;-93
2023/05/21 06:28:52;;;;;;;35.42;25.90;;;;;;;18.17;54.51;93332.44;4995964;28;20100;-92
2023/05/21 06:31:17;;;;;;;34.50;25.23;;;;;;;18.19;54.33;93332.66;4997126;28;20041;-92
2023/05/21 06:33:43;;;;;;;38.88;26.70;;;;;;;18.17;54.41;93316.75;4995885;28;20112;-93
2023/05/21 06:36:08;;;;;;;36.13;25.30;;;;;;;18.20;53.88;93326.66;4994651;28;20113;-93
2023/05/21 06:38:34;;;;;;;34.50;24.85;;;;;;;18.20;54.14;93320.44;5004836;28;20107;-93
2023/05/21 06:41:00;;;;;;;39.17;25.05;;;;;;;18.21;54.34;93325.41;4995605;28;20038;-92
2023/05/21 06:43:27;;;;;;;35.63;24.63;;;;;;;18.23;54.28;93320.16;4995181;28;20103;-92
2023/05/21 06:45:52;;;;;;;36.00;25.10;;;;;;;18.24;54.20;93327.13;4994969;28;20041;-92
2023/05/21 06:48:18;;;;;;;36.28;25.73;;;;;;;18.25;53.91;93323.13;4995252;28;20084;-92
2023/05/21 06:50:44;;;;;;;33.85;24.70;;;;;;;18.26;53.78;93324.63;4994983;28;20057;-92
2023/05/21 06:53:10;;;;;;;33.60;24.17;;;;;;;18.27;54.06;93334.31;4994767;28;20042;-93
2023/05/21 06:55:36;;;;;;;34.85;25.58;;;;;;;18.28;53.70;93335.78;4995528;28;20044;-92
2023/05/21 06:58:01;;;;;;;36.33;25.13;;;;;;;18.28;54.21;93324.09;4995747;28;20037;-94
2023/05/21 07:00:26;;;;;;;37.90;24.42;;;;;;;18.29;53.81;93339.28;4994758;28;20041;-93
2023/05/21 07:02:52;;;;;;;36.78;25.17;;;;;;;18.31;53.96;93332.03;4995093;28;20071;-92
2023/05/21 07:05:17;;;;;;;34.55;25.30;;;;;;;18.31;53.52;93336.75;4994804;28;20044;-92
2023/05/21 07:07:43;;;;;;;32.28;23.92;;;;;;;18.32;54.05;93328.03;4995550;28;20033;-93
2023/05/21 07:10:09;;;;;;;36.20;25.05;;;;;;;18.34;53.77;93347.44;4994460;28;20491;-93
2023/05/21 07:12:35;;;;;;;35.67;24.90;;;;;;;18.36;53.56;93346.94;4998710;28;20049;-93
2023/05/21 07:15:00;;;;;;;35.25;26.00;;;;;;;18.36;53.81;93339.47;5003272;28;20038;-93
2023/05/21 07:17:26;;;;;;;36.45;26.20;;;;;;;18.37;53.82;93334.72;4991240;28;20053;-93
2023/05/21 07:19:51;;;;;;;37.30;27.73;;;;;;;18.36;53.84;93336.72;4981150;28;20034;-93
2023/05/21 07:22:16;;;;;;;35.97;25.77;;;;;;;18.37;54.02;93332.72;5011421;28;20045;-92
2023/05/21 07:24:42;;;;;;;32.28;24.15;;;;;;;18.37;53.96;93323.78;4995213;28;20040;-92
2023/05/21 07:27:07;;;;;;;31.63;22.77;;;;;;;18.36;53.77;93333.25;4994254;28;20049;-93
2023/05/21 07:29:33;;;;;;;33.70;24.20;;;;;;;18.36;54.13;93341.44;4994728;28;20045;-93
2023/05/21 07:31:58;;;;;;;34.38;24.65;;;;;;;18.39;53.81;93348.66;4994705;28;20124;-93
2023/05/21 07:34:24;;;;;;;39.25;27.40;;;;;;;18.39;53.88;93354.84;4994405;28;20045;-93
2023/05/21 07:36:50;;;;;;;32.83;24.38;;;;;;;18.40;53.47;93337.16;4994516;28;20238;-93
2023/05/21 07:39:15;;;;;;;32.33;24.10;;;;;;;18.40;53.87;93348.09;5010906;28;20482;-93
2023/05/21 07:41:42;;;;;;;32.70;24.00;;;;;;;18.40;53.81;93344.66;4999203;28;20049;-92
2023/05/21 07:44:07;;;;;;;37.35;25.98;;;;;;;18.40;53.64;93334.41;4998539;28;20046;-92
2023/05/21 07:46:33;;;;;;;38.28;24.60;;;;;;;18.40;53.79;93336.44;4998695;28;20274;-92
2023/05/21 07:48:58;;;;;;;33.40;24.45;;;;;;;18.40;54.00;93345.38;4998948;28;20038;-92
2023/05/21 07:51:24;;;;;;;34.90;25.42;;;;;;;18.40;53.41;93331.69;4996996;28;20041;-92
2023/05/21 07:53:50;;;;;;;29.13;22.52;;;;;;;18.42;54.24;93339.38;4998791;28;20038;-92
2023/05/21 07:56:15;;;;;;;31.10;24.10;;;;;;;18.42;53.72;93342.88;4997651;28;20387;-93
2023/05/21 07:58:43;;;;;;;30.42;23.33;;;;;;;18.42;53.71;93353.81;4995530;28;20435;-92
2023/05/21 08:01:09;;;;;;;33.97;23.77;;;;;;;18.41;54.32;93348.84;4997711;28;20045;-92
2023/05/21 08:03:35;;;;;;;31.23;23.13;;;;;;;18.40;54.17;93342.63;4995090;28;20104;-92
2023/05/21 08:06:00;;;;;;;34.10;24.05;;;;;;;18.40;53.95;93342.63;5031293;28;20579;-93
2023/05/21 08:08:26;;;;;;;34.42;24.65;;;;;;;18.42;53.51;93350.31;4997511;28;20431;-92
2023/05/21 08:10:51;;;;;;;32.47;23.45;;;;;;;18.42;53.50;93348.34;4998320;28;20041;-93
2023/05/21 08:13:18;;;;;;;30.50;23.38;;;;;;;18.43;53.98;93346.34;5001041;28;20061;-93
2023/05/21 08:15:43;;;;;;;32.13;23.42;;;;;;;18.41;54.05;93338.63;4997737;28;20120;-92
2023/05/21 08:18:09;;;;;;;36.42;23.77;;;;;;;18.42;53.79;93347.59;4994289;28;20045;-91
2023/05/21 08:20:34;;;;;;;32.40;23.40;;;;;;;18.39;54.13;93345.91;4986568;28;20099;-93
2023/05/21 08:22:59;;;;;;;32.85;24.42;;;;;;;18.39;53.95;93341.16;4998136;28;20042;-92
2023/05/21 08:25:26;;;;;;;39.20;24.33;;;;;;;18.39;54.00;93356.84;4997542;28;20038;-91
2023/05/21 08:27:51;;;;;;;32.63;24.45;;;;;;;18.41;53.67;93335.91;4994431;28;20044;-91
2023/05/21 08:30:16;;;;;;;33.13;22.10;;;;;;;18.40;54.14;93347.38;4997309;28;20076;-92
2023/05/21 08:32:42;;;;;;;31.77;23.83;;;;;;;18.40;54.01;93350.13;4997969;28;20045;-92
2023/05/21 08:35:08;;;;;;;33.95;24.42;;;;;;;18.38;54.25;93347.16;4997334;28;20052;-92
2023/05/21 08:37:33;;;;;;;34.95;26.02;;;;;;;18.41;53.85;93349.59;5000403;28;20037;-92
2023/05/21 08:39:58;;;;;;;32.63;25.13;;;;;;;18.38;53.67;93344.41;5008453;28;20092;-92
2023/05/21 08:42:44;;;;;;;34.05;23.35;;;;;;;18.38;54.03;93345.16;4997295;28;20065;-92
2023/05/21 08:45:13;;;;;;;29.70;23.55;;;;;;;18.39;53.96;93338.44;5013066;28;20041;-93
2023/05/21 08:47:40;;;;;;;29.60;23.45;;;;;;;18.38;54.23;93347.16;4998043;28;20057;-92
2023/05/21 08:50:11;;;;;;;34.53;24.83;;;;;;;18.36;53.88;93342.19;4997126;28;20559;-92
2023/05/21 08:52:37;;;;;;;37.78;26.65;;;;;;;18.38;54.04;93344.41;4996915;28;20518;-92
2023/05/21 08:55:04;;;;;;;37.35;25.60;;;;;;;18.37;54.17;93345.66;4998053;28;20041;-94
2023/05/21 08:57:30;;;;;;;32.92;23.83;;;;;;;18.37;53.87;93348.41;4997424;28;20049;-94
2023/05/21 08:59:56;;;;;;;35.13;25.77;;;;;;;18.36;53.97;93350.41;4997650;28;20044;-92
2023/05/21 09:02:23;;;;;;;33.63;24.65;;;;;;;18.36;54.12;93350.41;5008885;28;20041;-92
2023/05/21 09:04:55;;;;;;;34.28;24.73;;;;;;;18.38;53.94;93347.16;4994549;28;20041;-92
2023/05/21 09:07:23;;;;;;;33.88;24.65;;;;;;;18.35;54.20;93354.41;4997714;28;20084;-92
2023/05/21 09:09:54;;;;;;;33.00;25.08;;;;;;;18.37;54.09;93362.09;4997227;28;20041;-92
2023/05/21 09:12:20;;;;;;;38.88;27.52;;;;;;;18.38;53.75;93360.84;4995552;28;20033;-93
2023/05/21 09:14:48;;;;;;;33.05;23.98;;;;;;;18.38;53.98;93360.84;5006759;28;20033;-93
2023/05/21 09:17:14;;;;;;;34.72;26.30;;;;;;;18.37;53.81;93360.09;4975542;28;20077;-92
2023/05/21 09:20:14;;;;;;;34.50;24.75;;;;;;;18.37;54.15;93351.88;4976625;28;20062;-92
2023/05/21 09:22:43;;;;;;;35.45;25.15;;;;;;;18.38;53.74;93349.91;4978014;28;20403;-94
2023/05/21 09:25:10;;;;;;;34.50;25.10;;;;;;;18.36;53.81;93366.81;4974711;28;20526;-92
2023/05/21 09:27:35;;;;;;;38.10;26.23;;;;;;;18.35;53.74;93361.84;4959525;28;20061;-93
2023/05/21 09:30:02;;;;;;;34.50;25.98;;;;;;;18.35;53.66;93359.88;4975643;28;20579;-92
2023/05/21 09:32:27;;;;;;;35.85;25.85;;;;;;;18.36;53.85;93368.81;4971740;28;20173;-92
2023/05/21 09:34:53;;;;;;;35.72;25.60;;;;;;;18.35;53.64;93361.84;4944519;28;20050;-91
2023/05/21 09:37:18;;;;;;;36.65;26.17;;;;;;;18.36;53.80;93363.34;4958843;28;20108;-93
2023/05/21 09:39:46;;;;;;;39.33;26.85;;;;;;;18.34;53.82;93352.91;4959609;28;20084;-92
2023/05/21 09:42:11;;;;;;;32.38;24.63;;;;;;;18.36;53.97;93360.59;4958492;28;20045;-93
2023/05/21 09:44:37;;;;;;;33.03;24.70;;;;;;;18.38;53.85;93371.78;4975928;28;20030;-92
2023/05/21 09:47:02;;;;;;;37.88;27.83;;;;;;;18.37;53.42;93362.09;4959863;28;20049;-92
2023/05/21 09:49:30;;;;;;;35.28;25.60;;;;;;;18.35;53.92;93365.34;4976444;28;20358;-92
2023/05/21 09:51:58;;;;;;;34.75;25.15;;;;;;;18.37;53.54;93359.34;4977290;28;20030;-93
2023/05/21 09:54:24;;;;;;;36.00;25.63;;;;;;;18.36;53.61;93361.34;4976964;28;20034;-92
2023/05/21 09:56:52;;;;;;;34.30;25.65;;;;;;;18.36;53.81;93361.34;4976811;28;20030;-92
2023/05/21 09:59:17;;;;;;;31.80;23.60;;;;;;;18.37;53.29;93362.84;4976436;28;20042;-93
2023/05/21 10:01:44;;;;;;;33.22;24.25;;;;;;;18.37;53.56;93354.63;4991617;28;20046;-93
2023/05/21 10:04:10;;;;;;;31.10;23.80;;;;;;;18.39;53.81;93351.38;4976548;28;20518;-92
2023/05/21 10:06:37;;;;;;;30.10;23.88;;;;;;;18.38;53.96;93352.63;4976925;28;20046;-93
2023/05/21 10:09:09;;;;;;;27.90;22.20;;;;;;;18.38;54.04;93352.63;4978606;28;20141;-92
2023/05/21 10:11:35;;;;;;;33.03;23.60;;;;;;;18.39;53.81;93352.13;5001490;28;20167;-93
2023/05/21 10:14:05;;;;;;;30.88;23.48;;;;;;;18.38;53.94;93356.13;4976634;28;20038;-92
2023/05/21 10:16:31;;;;;;;35.00;25.38;;;;;;;18.40;53.75;93356.31;4976755;28;20088;-93
2023/05/21 10:18:57;;;;;;;34.70;25.20;;;;;;;18.40;53.99;93350.13;4973181;28;20069;-93
2023/05/21 10:21:22;;;;;;;33.47;23.85;;;;;;;18.37;53.52;93345.66;4980512;28;20049;-92
2023/05/21 10:23:48;;;;;;;35.30;25.88;;;;;;;18.37;53.79;93340.94;4992508;28;20092;-92
2023/05/21 10:26:13;;;;;;;34.30;25.50;;;;;;;18.38;53.87;93338.94;4976196;28;20163;-92
2023/05/21 10:28:39;;;;;;;34.85;24.88;;;;;;;18.37;53.71;93342.94;4978476;28;20034;-93
2023/05/21 10:31:04;;;;;;;34.75;26.23;;;;;;;18.38;53.54;93331.47;5028028;28;20574;-92
2023/05/21 10:33:30;;;;;;;31.67;24.77;;;;;;;18.37;53.84;93327.25;4994448;28;20399;-92
2023/05/21 10:35:57;;;;;;;31.42;24.55;;;;;;;18.38;53.72;93333.47;4995842;28;20033;-93
2023/05/21 10:38:22;;;;;;;33.17;25.08;;;;;;;18.39;53.77;93332.97;4998640;28;20059;-92
2023/05/21 10:40:48;;;;;;;32.78;21.92;;;;;;;18.39;53.83;93332.22;4995280;28;20037;-93
2023/05/21 10:43:26;;;;;;;32.97;23.80;;;;;;;18.40;53.84;93323.47;4994617;28;20041;-92
2023/05/21 10:46:10;;;;;;;34.13;24.35;;;;;;;18.41;53.72;93335.16;5028406;28;20045;-92
2023/05/21 10:48:52;;;;;;;34.00;24.38;;;;;;;18.39;53.77;93326.75;5027649;28;20141;-92
2023/05/21 10:51:25;;;;;;;33.92;24.88;;;;;;;18.39;53.49;93332.22;5011101;28;20052;-93
2023/05/21 10:53:51;;;;;;;35.47;25.50;;;;;;;18.38;53.74;93323.28;4993141;28;20037;-92
2023/05/21 10:56:19;;;;;;;32.35;23.58;;;;;;;18.39;53.66;93322.00;5027295;28;20063;-93
2023/05/21 10:58:50;;;;;;;34.88;24.63;;;;;;;18.40;53.95;93330.97;5027592;28;20072;-91
2023/05/21 11:01:18;;;;;;;30.60;23.58;;;;;;;18.40;53.77;93325.50;5011401;28;20041;-93
2023/05/21 11:03:44;;;;;;;33.83;25.08;;;;;;;18.39;53.70;93326.75;4995572;28;20107;-92
2023/05/21 11:06:10;;;;;;;33.33;24.38;;;;;;;18.39;53.73;93329.47;4994253;28;20047;-93
2023/05/21 11:08:37;;;;;;;31.98;23.80;;;;;;;18.39;53.66;93324.75;4995295;28;20037;-92
2023/05/21 11:11:03;;;;;;;30.40;22.85;;;;;;;18.41;53.72;93327.69;4995092;28;20107;-93
2023/05/21 11:13:44;;;;;;;31.45;23.60;;;;;;;18.41;53.62;93324.22;4994456;28;20557;-92